createdAt,value
2019-04-03T00:00:43.935Z,0.00
2019-04-03T00:01:43.924Z,0.00
2019-04-03T00:02:43.912Z,0.00
2019-04-03T00:03:43.902Z,0.00
2019-04-03T00:04:43.906Z,0.00
2019-04-03T00:05:43.887Z,0.00
2019-04-03T00:06:43.874Z,0.00
2019-04-03T00:07:43.974Z,0.00
2019-04-03T00:08:43.847Z,0.00
2019-04-03T00:09:43.848Z,0.00
2019-04-03T00:10:43.832Z,0.00
2019-04-03T00:11:43.819Z,0.00
2019-04-03T00:12:43.883Z,0.00
2019-04-03T00:13:43.795Z,0.00
2019-04-03T00:14:43.799Z,0.00
2019-04-03T00:15:44.780Z,0.00
2019-04-03T00:16:45.410Z,0.00
2019-04-03T00:17:45.385Z,0.00
2019-04-03T00:18:43.762Z,0.00
2019-04-03T00:19:43.745Z,0.00
2019-04-03T00:20:43.717Z,0.00
2019-04-03T00:21:43.720Z,0.00
2019-04-03T00:22:46.082Z,0.00
2019-04-03T00:23:43.684Z,0.00
2019-04-03T00:24:43.705Z,0.00
2019-04-03T00:25:43.663Z,0.00
2019-04-03T00:26:43.654Z,0.00
2019-04-03T00:27:43.648Z,0.00
2019-04-03T00:28:43.630Z,0.00
2019-04-03T00:29:43.621Z,0.00
2019-04-03T00:30:43.666Z,0.00
2019-04-03T00:31:43.596Z,0.00
2019-04-03T00:32:43.585Z,0.00
2019-04-03T00:33:43.576Z,0.00
2019-04-03T00:34:43.560Z,0.00
2019-04-03T00:35:43.558Z,0.00
2019-04-03T00:36:43.539Z,0.00
2019-04-03T00:37:43.526Z,0.00
2019-04-03T00:38:43.523Z,0.00
2019-04-03T00:39:43.504Z,0.00
2019-04-03T00:40:43.507Z,0.00
2019-04-03T00:41:43.482Z,0.00
2019-04-03T00:42:43.477Z,0.00
2019-04-03T00:43:43.468Z,0.00
2019-04-03T00:44:43.453Z,0.00
2019-04-03T00:45:43.450Z,0.00
2019-04-03T00:46:43.426Z,0.00
2019-04-03T00:47:43.449Z,0.00
2019-04-03T00:48:43.405Z,0.00
2019-04-03T00:49:43.395Z,0.00
2019-04-03T00:50:43.418Z,0.00
2019-04-03T00:51:43.371Z,0.00
2019-04-03T00:52:43.372Z,0.00
2019-04-03T00:53:43.353Z,0.00
2019-04-03T00:54:43.341Z,0.00
2019-04-03T00:55:43.339Z,0.00
2019-04-03T00:56:43.350Z,0.00
2019-04-03T00:57:43.305Z,0.00
2019-04-03T00:58:43.296Z,0.00
2019-04-03T00:59:43.285Z,0.00
2019-04-03T01:00:43.282Z,0.00
2019-04-03T01:01:43.266Z,0.00
2019-04-03T01:02:43.250Z,0.00
2019-04-03T01:03:43.238Z,0.00
2019-04-03T01:04:43.231Z,0.00
2019-04-03T01:05:43.228Z,0.00
2019-04-03T01:06:43.313Z,0.00
2019-04-03T01:07:43.209Z,0.00
2019-04-03T01:08:43.184Z,0.00
2019-04-03T01:09:43.172Z,0.00
2019-04-03T01:10:43.179Z,0.00
2019-04-03T01:11:43.302Z,0.00
2019-04-03T01:12:43.141Z,0.00
2019-04-03T01:13:43.140Z,0.00
2019-04-03T01:14:43.119Z,0.00
2019-04-03T01:15:43.129Z,0.00
2019-04-03T01:16:43.097Z,0.00
2019-04-03T01:17:43.100Z,0.00
2019-04-03T01:18:43.072Z,0.00
2019-04-03T01:19:43.062Z,0.00
2019-04-03T01:20:43.057Z,0.00
2019-04-03T01:21:43.043Z,0.00
2019-04-03T01:22:43.031Z,0.00
2019-04-03T01:23:43.017Z,0.00
2019-04-03T01:24:43.004Z,0.00
2019-04-03T01:25:43.003Z,0.00
2019-04-03T01:26:42.984Z,0.00
2019-04-03T01:27:43.042Z,0.00
2019-04-03T01:28:42.971Z,0.00
2019-04-03T01:29:43.278Z,0.00
2019-04-03T01:30:44.218Z,0.00
2019-04-03T01:31:44.898Z,0.00
2019-04-03T01:32:42.916Z,0.00
2019-04-03T01:33:42.917Z,0.00
2019-04-03T01:34:42.911Z,0.00
2019-04-03T01:35:42.933Z,0.00
2019-04-03T01:36:42.872Z,0.00
2019-04-03T01:37:42.863Z,0.00
2019-04-03T01:38:42.882Z,0.00
2019-04-03T01:39:42.846Z,0.00
2019-04-03T01:40:42.828Z,0.00
2019-04-03T01:41:42.826Z,0.00
2019-04-03T01:42:42.897Z,0.00
2019-04-03T01:43:42.795Z,0.00
2019-04-03T01:44:42.783Z,0.00
2019-04-03T01:45:42.779Z,0.00
2019-04-03T01:46:42.774Z,0.00
2019-04-03T01:47:42.750Z,0.00
2019-04-03T01:48:42.740Z,0.00
2019-04-03T01:49:42.946Z,0.00
2019-04-03T01:50:42.722Z,0.00
2019-04-03T01:51:42.810Z,0.00
2019-04-03T01:52:42.739Z,0.00
2019-04-03T01:53:42.686Z,0.00
2019-04-03T01:54:42.674Z,0.00
2019-04-03T01:55:42.662Z,0.00
2019-04-03T01:56:42.718Z,0.00
2019-04-03T01:57:42.710Z,0.00
2019-04-03T01:58:42.725Z,0.00
2019-04-03T01:59:42.664Z,0.00
2019-04-03T02:00:42.620Z,0.00
2019-04-03T02:01:42.820Z,0.00
2019-04-03T02:02:42.597Z,0.00
2019-04-03T02:03:42.583Z,0.00
2019-04-03T02:04:43.037Z,0.00
2019-04-03T02:05:43.840Z,0.00
2019-04-03T02:06:43.671Z,0.00
2019-04-03T02:07:44.220Z,0.00
2019-04-03T02:08:44.263Z,0.00
2019-04-03T02:09:42.551Z,0.00
2019-04-03T02:10:42.511Z,0.00
2019-04-03T02:11:42.496Z,0.00
2019-04-03T02:12:42.473Z,0.00
2019-04-03T02:13:42.480Z,0.00
2019-04-03T02:14:42.450Z,0.00
2019-04-03T02:15:42.447Z,0.00
2019-04-03T02:16:42.652Z,0.00
2019-04-03T02:17:42.418Z,0.00
2019-04-03T02:18:42.410Z,0.00
2019-04-03T02:19:42.573Z,0.00
2019-04-03T02:20:42.386Z,0.00
2019-04-03T02:21:42.388Z,0.00
2019-04-03T02:22:42.364Z,0.00
2019-04-03T02:23:42.477Z,0.00
2019-04-03T02:24:42.342Z,0.00
2019-04-03T02:25:42.330Z,0.00
2019-04-03T02:26:42.317Z,0.00
2019-04-03T02:27:42.316Z,0.00
2019-04-03T02:28:42.294Z,0.00
2019-04-03T02:29:42.286Z,0.00
2019-04-03T02:30:44.995Z,0.00
2019-04-03T02:31:42.263Z,0.00
2019-04-03T02:32:42.273Z,0.00
2019-04-03T02:33:42.239Z,0.00
2019-04-03T02:34:42.230Z,0.00
2019-04-03T02:35:42.290Z,0.00
2019-04-03T02:36:44.298Z,0.00
2019-04-03T02:37:42.207Z,0.00
2019-04-03T02:38:42.198Z,0.00
2019-04-03T02:39:42.302Z,0.00
2019-04-03T02:40:42.163Z,0.00
2019-04-03T02:41:42.170Z,0.00
2019-04-03T02:42:42.617Z,0.00
2019-04-03T02:43:45.577Z,0.00
2019-04-03T02:44:42.369Z,0.00
2019-04-03T02:45:42.110Z,0.00
2019-04-03T02:46:42.201Z,0.00
2019-04-03T02:47:42.098Z,0.00
2019-04-03T02:48:42.292Z,0.00
2019-04-03T02:49:43.176Z,0.00
2019-04-03T02:50:42.211Z,0.00
2019-04-03T02:51:42.042Z,0.00
2019-04-03T02:52:42.040Z,0.00
2019-04-03T02:53:42.190Z,0.00
2019-04-03T02:54:42.033Z,0.00
2019-04-03T02:55:42.015Z,0.00
2019-04-03T02:56:44.559Z,0.00
2019-04-03T02:57:42.004Z,0.00
2019-04-03T02:58:41.973Z,0.00
2019-04-03T02:59:42.031Z,0.00
2019-04-03T03:00:42.271Z,0.00
2019-04-03T03:01:41.931Z,0.00
2019-04-03T03:02:44.095Z,0.00
2019-04-03T03:03:42.172Z,0.00
2019-04-03T03:04:41.903Z,0.00
2019-04-03T03:05:41.949Z,0.00
2019-04-03T03:06:41.898Z,0.00
2019-04-03T03:07:42.011Z,0.00
2019-04-03T03:08:42.628Z,0.00
2019-04-03T03:09:45.573Z,0.00
2019-04-03T03:10:41.838Z,0.00
2019-04-03T03:11:41.818Z,0.00
2019-04-03T03:12:41.810Z,0.00
2019-04-03T03:13:42.088Z,0.00
2019-04-03T03:14:41.792Z,0.00
2019-04-03T03:15:44.340Z,0.00
2019-04-03T03:16:41.765Z,0.00
2019-04-03T03:17:41.840Z,0.00
2019-04-03T03:18:41.750Z,0.00
2019-04-03T03:19:41.733Z,0.00
2019-04-03T03:20:41.754Z,0.00
2019-04-03T03:21:44.067Z,0.00
2019-04-03T03:22:41.698Z,0.00
2019-04-03T03:23:41.702Z,0.00
2019-04-03T03:24:41.851Z,0.00
2019-04-03T03:25:41.680Z,0.00
2019-04-03T03:26:41.654Z,0.00
2019-04-03T03:27:42.671Z,0.00
2019-04-03T03:28:45.691Z,0.00
2019-04-03T03:29:42.618Z,0.00
2019-04-03T03:30:53.484Z,0.00
2019-04-03T03:32:05.077Z,0.00
2019-04-03T03:32:43.141Z,0.00
2019-04-03T03:33:42.425Z,0.00
2019-04-03T03:34:53.851Z,0.00
2019-04-03T03:35:46.241Z,0.00
2019-04-03T03:36:42.825Z,0.00
2019-04-03T03:37:41.794Z,0.00
2019-04-03T03:38:41.796Z,0.00
2019-04-03T03:39:43.434Z,0.00
2019-04-03T03:40:41.535Z,0.00
2019-04-03T03:41:41.604Z,0.00
2019-04-03T03:42:41.515Z,0.00
2019-04-03T03:43:41.714Z,0.00
2019-04-03T03:44:45.481Z,0.00
2019-04-03T03:45:41.485Z,0.00
2019-04-03T03:46:41.648Z,0.00
2019-04-03T03:47:41.423Z,0.00
2019-04-03T03:48:43.982Z,0.00
2019-04-03T03:49:41.396Z,0.00
2019-04-03T03:50:41.386Z,0.00
2019-04-03T03:51:41.472Z,0.00
2019-04-03T03:52:41.693Z,0.00
2019-04-03T03:53:44.545Z,0.00
2019-04-03T03:54:41.579Z,0.00
2019-04-03T03:55:41.332Z,0.00
2019-04-03T03:56:41.566Z,0.00
2019-04-03T03:57:41.311Z,0.00
2019-04-03T03:58:44.709Z,0.00
2019-04-03T03:59:41.771Z,0.00
2019-04-03T04:00:41.277Z,0.00
2019-04-03T04:01:41.271Z,0.00
2019-04-03T04:02:44.301Z,0.00
2019-04-03T04:03:42.166Z,0.00
2019-04-03T04:04:41.242Z,0.00
2019-04-03T04:05:41.231Z,0.00
2019-04-03T04:06:41.219Z,0.00
2019-04-03T04:07:41.250Z,0.00
2019-04-03T04:08:44.159Z,0.00
2019-04-03T04:09:41.193Z,0.00
2019-04-03T04:10:41.173Z,0.00
2019-04-03T04:11:41.159Z,4.00
2019-04-03T04:12:42.093Z,4.00
2019-04-03T04:13:41.184Z,0.00
2019-04-03T04:14:41.136Z,0.00
2019-04-03T04:15:41.432Z,4.00
2019-04-03T04:16:41.101Z,4.00
2019-04-03T04:17:41.430Z,4.00
2019-04-03T04:18:41.086Z,4.00
2019-04-03T04:19:41.101Z,4.00
2019-04-03T04:20:41.061Z,8.00
2019-04-03T04:21:44.006Z,4.00
2019-04-03T04:22:41.040Z,8.00
2019-04-03T04:23:41.033Z,8.00
2019-04-03T04:24:41.028Z,8.00
2019-04-03T04:25:43.536Z,8.00
2019-04-03T04:26:40.994Z,12.00
2019-04-03T04:27:40.998Z,12.00
2019-04-03T04:28:41.095Z,12.00
2019-04-03T04:29:41.794Z,12.00
2019-04-03T04:30:42.538Z,16.00
2019-04-03T04:31:43.348Z,16.00
2019-04-03T04:32:41.241Z,20.00
2019-04-03T04:33:40.930Z,24.00
2019-04-03T04:34:40.936Z,28.00
2019-04-03T04:35:40.902Z,32.00
2019-04-03T04:36:40.972Z,36.00
2019-04-03T04:37:41.214Z,40.00
2019-04-03T04:38:40.863Z,44.00
2019-04-03T04:39:41.022Z,48.00
2019-04-03T04:40:40.844Z,52.00
2019-04-03T04:41:40.832Z,56.00
2019-04-03T04:42:40.978Z,60.00
2019-04-03T04:43:40.815Z,64.00
2019-04-03T04:44:41.521Z,68.00
2019-04-03T04:45:42.616Z,76.00
2019-04-03T04:46:43.602Z,76.00
2019-04-03T04:47:40.767Z,84.00
2019-04-03T04:48:40.964Z,92.00
2019-04-03T04:49:41.019Z,96.00
2019-04-03T04:50:40.832Z,108.00
2019-04-03T04:51:40.733Z,116.00
2019-04-03T04:52:40.711Z,128.00
2019-04-03T04:53:40.702Z,136.00
2019-04-03T04:54:42.907Z,144.00
2019-04-03T04:55:40.690Z,160.00
2019-04-03T04:56:40.796Z,168.00
2019-04-03T04:57:41.376Z,180.00
2019-04-03T04:58:42.532Z,196.00
2019-04-03T04:59:40.635Z,208.00
2019-04-03T05:00:40.641Z,220.00
2019-04-03T05:01:40.618Z,236.00
2019-04-03T05:02:40.602Z,248.00
2019-04-03T05:03:40.591Z,264.00
2019-04-03T05:04:40.579Z,276.00
2019-04-03T05:05:40.584Z,288.00
2019-04-03T05:06:40.783Z,300.00
2019-04-03T05:07:40.551Z,308.00
2019-04-03T05:08:40.554Z,312.00
2019-04-03T05:09:40.545Z,324.00
2019-04-03T05:10:40.616Z,332.00
2019-04-03T05:11:40.508Z,340.00
2019-04-03T05:12:44.189Z,352.00
2019-04-03T05:13:40.504Z,360.00
2019-04-03T05:14:40.485Z,368.00
2019-04-03T05:15:40.570Z,376.00
2019-04-03T05:16:40.477Z,392.00
2019-04-03T05:17:40.715Z,404.00
2019-04-03T05:18:40.463Z,416.00
2019-04-03T05:19:40.514Z,436.00
2019-04-03T05:20:40.646Z,448.00
2019-04-03T05:21:40.405Z,464.00
2019-04-03T05:22:40.391Z,480.00
2019-04-03T05:23:40.451Z,496.00
2019-04-03T05:24:40.376Z,516.00
2019-04-03T05:25:40.375Z,536.00
2019-04-03T05:26:40.587Z,552.00
2019-04-03T05:27:40.506Z,572.00
2019-04-03T05:28:40.327Z,592.00
2019-04-03T05:29:40.390Z,612.00
2019-04-03T05:30:40.319Z,636.00
2019-04-03T05:31:40.586Z,660.00
2019-04-03T05:32:41.177Z,688.00
2019-04-03T05:33:42.252Z,708.00
2019-04-03T05:34:40.260Z,736.00
2019-04-03T05:35:40.265Z,764.00
2019-04-03T05:36:40.438Z,784.00
2019-04-03T05:37:40.351Z,816.00
2019-04-03T05:38:40.217Z,828.00
2019-04-03T05:39:40.249Z,888.00
2019-04-03T05:40:40.212Z,868.00
2019-04-03T05:41:40.202Z,1036.00
2019-04-03T05:42:40.172Z,800.00
2019-04-03T05:43:40.245Z,1144.00
2019-04-03T05:44:40.148Z,1156.00
2019-04-03T05:45:41.824Z,1228.00
2019-04-03T05:46:40.130Z,1272.00
2019-04-03T05:47:40.256Z,1320.00
2019-04-03T05:48:40.118Z,1368.00
2019-04-03T05:49:40.094Z,1452.00
2019-04-03T05:50:40.124Z,1520.00
2019-04-03T05:51:40.207Z,1580.00
2019-04-03T05:52:40.064Z,1640.00
2019-04-03T05:53:40.075Z,1692.00
2019-04-03T05:54:40.321Z,1756.00
2019-04-03T05:55:41.022Z,1848.00
2019-04-03T05:56:42.432Z,1916.00
2019-04-03T05:57:40.009Z,1952.00
2019-04-03T05:58:40.003Z,2036.00
2019-04-03T05:59:39.997Z,2100.00
2019-04-03T06:00:40.112Z,2128.00
2019-04-03T06:01:42.663Z,2120.00
2019-04-03T06:02:40.954Z,2156.00
2019-04-03T06:03:44.475Z,2308.00
2019-04-03T06:04:41.652Z,2544.00
2019-04-03T06:05:39.918Z,2764.00
2019-04-03T06:06:39.961Z,2624.00
2019-04-03T06:07:39.899Z,2596.00
2019-04-03T06:08:39.890Z,2848.00
2019-04-03T06:09:39.918Z,3132.00
2019-04-03T06:10:39.888Z,3048.00
2019-04-03T06:11:40.771Z,2700.00
2019-04-03T06:12:39.874Z,2580.00
2019-04-03T06:13:39.925Z,2588.00
2019-04-03T06:14:39.824Z,2644.00
2019-04-03T06:15:39.819Z,2704.00
2019-04-03T06:16:39.851Z,2776.00
2019-04-03T06:17:39.789Z,2860.00
2019-04-03T06:18:39.798Z,2972.00
2019-04-03T06:19:40.047Z,3100.00
2019-04-03T06:20:41.222Z,3248.00
2019-04-03T06:21:39.763Z,3372.00
2019-04-03T06:22:39.934Z,3524.00
2019-04-03T06:23:39.723Z,3640.00
2019-04-03T06:24:39.705Z,3776.00
2019-04-03T06:25:39.700Z,3920.00
2019-04-03T06:26:39.703Z,4108.00
2019-04-03T06:27:42.189Z,4224.00
2019-04-03T06:28:42.395Z,4336.00
2019-04-03T06:29:39.657Z,4412.00
2019-04-03T06:30:39.674Z,4476.00
2019-04-03T06:31:39.686Z,4536.00
2019-04-03T06:32:39.638Z,4608.00
2019-04-03T06:33:39.616Z,4648.00
2019-04-03T06:34:42.441Z,4608.00
2019-04-03T06:35:39.594Z,4600.00
2019-04-03T06:36:39.591Z,4688.00
2019-04-03T06:37:39.570Z,4744.00
2019-04-03T06:38:39.559Z,4828.00
2019-04-03T06:39:39.543Z,4916.00
2019-04-03T06:40:39.706Z,4932.00
2019-04-03T06:41:41.545Z,4912.00
2019-04-03T06:42:39.542Z,4864.00
2019-04-03T06:43:39.511Z,4836.00
2019-04-03T06:44:39.494Z,4892.00
2019-04-03T06:45:39.588Z,4984.00
2019-04-03T06:46:39.479Z,5032.00
2019-04-03T06:47:39.458Z,5132.00
2019-04-03T06:48:39.442Z,5276.00
2019-04-03T06:49:40.269Z,5336.00
2019-04-03T06:50:39.447Z,5372.00
2019-04-03T06:51:39.422Z,5292.00
2019-04-03T06:52:39.401Z,4996.00
2019-04-03T06:53:39.392Z,4928.00
2019-04-03T06:54:39.382Z,4956.00
2019-04-03T06:55:39.364Z,5100.00
2019-04-03T06:56:40.831Z,5304.00
2019-04-03T06:57:39.937Z,5212.00
2019-04-03T06:58:40.167Z,5092.00
2019-04-03T06:59:39.488Z,5292.00
2019-04-03T07:00:39.320Z,5476.00
2019-04-03T07:01:39.530Z,5556.00
2019-04-03T07:02:39.299Z,5648.00
2019-04-03T07:03:39.275Z,5732.00
2019-04-03T07:04:39.349Z,5800.00
2019-04-03T07:05:41.320Z,6004.00
2019-04-03T07:06:39.268Z,6208.00
2019-04-03T07:07:39.480Z,6308.00
2019-04-03T07:08:40.925Z,6376.00
2019-04-03T07:09:39.213Z,6408.00
2019-04-03T07:10:40.365Z,6548.00
2019-04-03T07:11:39.188Z,6664.00
2019-04-03T07:12:39.326Z,6680.00
2019-04-03T07:13:39.335Z,6672.00
2019-04-03T07:14:39.154Z,6688.00
2019-04-03T07:15:39.144Z,6584.00
2019-04-03T07:16:39.132Z,6452.00
2019-04-03T07:17:39.287Z,6252.00
2019-04-03T07:18:39.165Z,6128.00
2019-04-03T07:19:39.821Z,6108.00
2019-04-03T07:20:39.089Z,5976.00
2019-04-03T07:21:39.098Z,6044.00
2019-04-03T07:22:39.078Z,5984.00
2019-04-03T07:23:39.112Z,6024.00
2019-04-03T07:24:39.355Z,6056.00
2019-04-03T07:25:39.058Z,6100.00
2019-04-03T07:26:39.025Z,6220.00
2019-04-03T07:27:41.398Z,6336.00
2019-04-03T07:28:41.618Z,6428.00
2019-04-03T07:29:38.991Z,6564.00
2019-04-03T07:30:38.979Z,7528.00
2019-04-03T07:31:38.968Z,8980.00
2019-04-03T07:32:38.987Z,9760.00
2019-04-03T07:33:38.952Z,9408.00
2019-04-03T07:34:38.941Z,10380.00
2019-04-03T07:35:40.224Z,9476.00
2019-04-03T07:36:40.932Z,9320.00
2019-04-03T07:37:38.909Z,9348.00
2019-04-03T07:38:38.895Z,10024.00
2019-04-03T07:39:38.888Z,9276.00
2019-04-03T07:40:38.879Z,8556.00
2019-04-03T07:41:41.043Z,8724.00
2019-04-03T07:42:38.986Z,9156.00
2019-04-03T07:43:39.053Z,9848.00
2019-04-03T07:44:38.827Z,11724.00
2019-04-03T07:45:38.846Z,11972.00
2019-04-03T07:46:38.803Z,12144.00
2019-04-03T07:47:38.802Z,12520.00
2019-04-03T07:48:38.784Z,15264.00
2019-04-03T07:49:39.989Z,15776.00
2019-04-03T07:50:41.062Z,12696.00
2019-04-03T07:51:38.964Z,15072.00
2019-04-03T07:52:38.764Z,14272.00
2019-04-03T07:53:38.730Z,13004.00
2019-04-03T07:54:38.714Z,12192.00
2019-04-03T07:55:38.709Z,13664.00
2019-04-03T07:56:38.694Z,16608.00
2019-04-03T07:57:41.041Z,15392.00
2019-04-03T07:58:38.671Z,14592.00
2019-04-03T07:59:38.688Z,16320.00
2019-04-03T08:00:39.274Z,21728.00
2019-04-03T08:01:40.858Z,29312.00
2019-04-03T08:02:38.643Z,29376.00
2019-04-03T08:03:38.617Z,24896.00
2019-04-03T08:04:38.946Z,17472.00
2019-04-03T08:05:38.594Z,10536.00
2019-04-03T08:06:38.588Z,10000.00
2019-04-03T08:07:38.581Z,10244.00
2019-04-03T08:08:38.577Z,10392.00
2019-04-03T08:09:38.570Z,10364.00
2019-04-03T08:10:38.540Z,10256.00
2019-04-03T08:11:38.758Z,10316.00
2019-04-03T08:12:38.530Z,10492.00
2019-04-03T08:13:38.558Z,10564.00
2019-04-03T08:14:39.118Z,10600.00
2019-04-03T08:15:38.754Z,10620.00
2019-04-03T08:16:41.598Z,10552.00
2019-04-03T08:17:38.466Z,10584.00
2019-04-03T08:18:38.477Z,10760.00
2019-04-03T08:19:38.444Z,10784.00
2019-04-03T08:20:38.433Z,10724.00
2019-04-03T08:21:38.728Z,10712.00
2019-04-03T08:22:38.422Z,10824.00
2019-04-03T08:23:38.413Z,11016.00
2019-04-03T08:24:39.673Z,11292.00
2019-04-03T08:25:38.375Z,11328.00
2019-04-03T08:26:38.365Z,11484.00
2019-04-03T08:27:38.355Z,11588.00
2019-04-03T08:28:38.355Z,11648.00
2019-04-03T08:29:39.011Z,11496.00
2019-04-03T08:30:39.678Z,11468.00
2019-04-03T08:31:38.430Z,11496.00
2019-04-03T08:32:38.298Z,11604.00
2019-04-03T08:33:38.306Z,11620.00
2019-04-03T08:34:38.276Z,11656.00
2019-04-03T08:35:38.375Z,11528.00
2019-04-03T08:36:39.505Z,11624.00
2019-04-03T08:37:40.613Z,11676.00
2019-04-03T08:38:38.579Z,11616.00
2019-04-03T08:39:38.223Z,11652.00
2019-04-03T08:40:38.214Z,11480.00
2019-04-03T08:41:38.730Z,11416.00
2019-04-03T08:42:38.201Z,11828.00
2019-04-03T08:43:38.190Z,11880.00
2019-04-03T08:44:38.186Z,11956.00
2019-04-03T08:45:39.172Z,12064.00
2019-04-03T08:46:38.146Z,12132.00
2019-04-03T08:47:38.562Z,12136.00
2019-04-03T08:48:38.462Z,12180.00
2019-04-03T08:49:38.113Z,12228.00
2019-04-03T08:50:38.102Z,12260.00
2019-04-03T08:51:38.089Z,12268.00
2019-04-03T08:52:38.084Z,12332.00
2019-04-03T08:53:39.341Z,12324.00
2019-04-03T08:54:38.380Z,12284.00
2019-04-03T08:55:38.048Z,12168.00
2019-04-03T08:56:38.039Z,12212.00
2019-04-03T08:57:38.030Z,12228.00
2019-04-03T08:58:38.075Z,12272.00
2019-04-03T08:59:38.031Z,12432.00
2019-04-03T09:00:37.993Z,12352.00
2019-04-03T09:01:38.214Z,12236.00
2019-04-03T09:02:37.972Z,12508.00
2019-04-03T09:03:37.979Z,15320.00
2019-04-03T09:04:37.956Z,12444.00
2019-04-03T09:05:37.938Z,14068.00
2019-04-03T09:06:37.927Z,17280.00
2019-04-03T09:07:38.068Z,17088.00
2019-04-03T09:08:37.915Z,17344.00
2019-04-03T09:09:37.897Z,20128.00
2019-04-03T09:10:37.891Z,22816.00
2019-04-03T09:11:38.185Z,19904.00
2019-04-03T09:12:38.831Z,23904.00
2019-04-03T09:13:37.963Z,27680.00
2019-04-03T09:14:38.242Z,23776.00
2019-04-03T09:15:37.845Z,22720.00
2019-04-03T09:16:37.869Z,27296.00
2019-04-03T09:17:37.809Z,26528.00
2019-04-03T09:18:38.268Z,21312.00
2019-04-03T09:19:40.714Z,23264.00
2019-04-03T09:20:37.899Z,19200.00
2019-04-03T09:21:37.766Z,21824.00
2019-04-03T09:22:37.757Z,23520.00
2019-04-03T09:23:37.784Z,21024.00
2019-04-03T09:24:37.732Z,19936.00
2019-04-03T09:25:38.031Z,21760.00
2019-04-03T09:26:38.226Z,22144.00
2019-04-03T09:27:37.957Z,20896.00
2019-04-03T09:28:37.690Z,25632.00
2019-04-03T09:29:37.687Z,27360.00
2019-04-03T09:30:37.975Z,25280.00
2019-04-03T09:31:37.662Z,27680.00
2019-04-03T09:32:37.659Z,30560.00
2019-04-03T09:33:37.634Z,32640.00
2019-04-03T09:34:37.635Z,25984.00
2019-04-03T09:35:37.619Z,27520.00
2019-04-03T09:36:37.602Z,27456.00
2019-04-03T09:37:38.281Z,23648.00
2019-04-03T09:38:37.618Z,28896.00
2019-04-03T09:39:37.590Z,21504.00
2019-04-03T09:40:37.561Z,20992.00
2019-04-03T09:41:37.549Z,22688.00
2019-04-03T09:42:37.537Z,22304.00
2019-04-03T09:43:39.401Z,22528.00
2019-04-03T09:44:37.553Z,22688.00
2019-04-03T09:45:37.835Z,26016.00
2019-04-03T09:46:37.700Z,27872.00
2019-04-03T09:47:37.486Z,27008.00
2019-04-03T09:48:37.948Z,27232.00
2019-04-03T09:49:40.535Z,28224.00
2019-04-03T09:50:38.451Z,33056.00
2019-04-03T09:51:37.449Z,25984.00
2019-04-03T09:52:44.787Z,24224.00
2019-04-03T09:53:38.421Z,25792.00
2019-04-03T09:54:37.420Z,23136.00
2019-04-03T09:55:37.893Z,26528.00
2019-04-03T09:56:40.637Z,23200.00
2019-04-03T09:57:38.506Z,19520.00
2019-04-03T09:58:37.369Z,18304.00
2019-04-03T09:59:37.798Z,22112.00
2019-04-03T10:00:37.544Z,15536.00
2019-04-03T10:01:37.336Z,12248.00
2019-04-03T10:02:37.323Z,18304.00
2019-04-03T10:03:37.331Z,17504.00
2019-04-03T10:04:37.562Z,12028.00
2019-04-03T10:05:37.294Z,12060.00
2019-04-03T10:06:37.319Z,13052.00
2019-04-03T10:07:37.596Z,11980.00
2019-04-03T10:08:38.101Z,11896.00
2019-04-03T10:09:38.682Z,11848.00
2019-04-03T10:10:37.257Z,11664.00
2019-04-03T10:11:39.195Z,11520.00
2019-04-03T10:12:37.220Z,11376.00
2019-04-03T10:13:37.355Z,11552.00
2019-04-03T10:14:37.202Z,11404.00
2019-04-03T10:15:37.184Z,11624.00
2019-04-03T10:16:37.520Z,11556.00
2019-04-03T10:17:38.365Z,11176.00
2019-04-03T10:18:37.248Z,10944.00
2019-04-03T10:19:37.172Z,10920.00
2019-04-03T10:20:37.135Z,10884.00
2019-04-03T10:21:37.399Z,11056.00
2019-04-03T10:22:37.366Z,11416.00
2019-04-03T10:23:37.103Z,11532.00
2019-04-03T10:24:37.104Z,11616.00
2019-04-03T10:25:38.017Z,11772.00
2019-04-03T10:26:39.262Z,11984.00
2019-04-03T10:27:37.059Z,12092.00
2019-04-03T10:28:37.041Z,12332.00
2019-04-03T10:29:37.044Z,12356.00
2019-04-03T10:30:37.269Z,12008.00
2019-04-03T10:31:37.334Z,11860.00
2019-04-03T10:32:36.997Z,12132.00
2019-04-03T10:33:36.993Z,12244.00
2019-04-03T10:34:36.993Z,12572.00
2019-04-03T10:35:38.556Z,12604.00
2019-04-03T10:36:36.957Z,12268.00
2019-04-03T10:37:36.950Z,11636.00
2019-04-03T10:38:36.933Z,11260.00
2019-04-03T10:39:40.045Z,10932.00
2019-04-03T10:40:37.908Z,11024.00
2019-04-03T10:41:36.915Z,11672.00
2019-04-03T10:42:36.942Z,7976.00
2019-04-03T10:43:37.652Z,1304.00
2019-04-03T10:44:36.869Z,1532.00
2019-04-03T10:45:37.005Z,2112.00
2019-04-03T10:46:36.846Z,2852.00
2019-04-03T10:47:42.399Z,2300.00
2019-04-03T10:48:38.049Z,2064.00
2019-04-03T10:49:36.978Z,16320.00
2019-04-03T10:50:38.050Z,16544.00
2019-04-03T10:51:36.790Z,17120.00
2019-04-03T10:52:36.786Z,16640.00
2019-04-03T10:53:36.798Z,17984.00
2019-04-03T10:54:38.007Z,16640.00
2019-04-03T10:55:36.923Z,14076.00
2019-04-03T10:56:36.739Z,12972.00
2019-04-03T10:57:37.092Z,11176.00
2019-04-03T10:58:38.125Z,13044.00
2019-04-03T10:59:36.960Z,13700.00
2019-04-03T11:00:36.990Z,14116.00
2019-04-03T11:01:36.789Z,13428.00
2019-04-03T11:02:36.679Z,12484.00
2019-04-03T11:03:36.666Z,12140.00
2019-04-03T11:04:36.651Z,13232.00
2019-04-03T11:05:36.649Z,13960.00
2019-04-03T11:06:37.839Z,13860.00
2019-04-03T11:07:36.827Z,13628.00
2019-04-03T11:08:36.610Z,15604.00
2019-04-03T11:09:36.600Z,16544.00
2019-04-03T11:10:36.608Z,18592.00
2019-04-03T11:11:37.504Z,19968.00
2019-04-03T11:12:36.569Z,20384.00
2019-04-03T11:13:36.965Z,20736.00
2019-04-03T11:14:38.517Z,18400.00
2019-04-03T11:15:36.543Z,18592.00
2019-04-03T11:16:38.929Z,17376.00
2019-04-03T11:17:36.510Z,18400.00
2019-04-03T11:18:37.152Z,17280.00
2019-04-03T11:19:37.418Z,16192.00
2019-04-03T11:20:37.124Z,18496.00
2019-04-03T11:21:36.519Z,17216.00
2019-04-03T11:22:40.768Z,15520.00
2019-04-03T11:23:42.254Z,16000.00
2019-04-03T11:24:41.462Z,16352.00
2019-04-03T11:25:36.441Z,16224.00
2019-04-03T11:26:36.429Z,16544.00
2019-04-03T11:28:38.447Z,15112.00
2019-04-03T11:29:36.398Z,14680.00
2019-04-03T11:30:36.385Z,12324.00
2019-04-03T11:30:54.792Z,15968.00
2019-04-03T11:31:41.376Z,13572.00
2019-04-03T11:32:37.468Z,13636.00
2019-04-03T11:33:36.390Z,13620.00
2019-04-03T11:34:36.324Z,13860.00
2019-04-03T11:35:36.338Z,13884.00
2019-04-03T11:36:36.312Z,14032.00
2019-04-03T11:37:36.293Z,13804.00
2019-04-03T11:38:36.657Z,13632.00
2019-04-03T11:39:37.544Z,13480.00
2019-04-03T11:40:36.275Z,12968.00
2019-04-03T11:41:36.250Z,13396.00
2019-04-03T11:42:36.494Z,14200.00
2019-04-03T11:43:36.266Z,14148.00
2019-04-03T11:44:43.996Z,13896.00
2019-04-03T11:45:36.283Z,13656.00
2019-04-03T11:46:36.525Z,13956.00
2019-04-03T11:47:36.185Z,14560.00
2019-04-03T11:48:36.182Z,14552.00
2019-04-03T11:49:36.516Z,14124.00
2019-04-03T11:50:38.906Z,12796.00
2019-04-03T11:51:36.245Z,11204.00
2019-04-03T11:52:36.133Z,12376.00
2019-04-03T11:53:36.126Z,14712.00
2019-04-03T11:54:37.013Z,17600.00
2019-04-03T11:55:36.101Z,23168.00
2019-04-03T11:56:36.100Z,28096.00
2019-04-03T11:57:36.235Z,31456.00
2019-04-03T11:58:36.095Z,27616.00
2019-04-03T11:59:36.061Z,26880.00
2019-04-03T12:00:36.046Z,36320.00
2019-04-03T12:01:36.403Z,38688.00
2019-04-03T12:02:38.289Z,9344.00
2019-04-03T12:03:36.017Z,9368.00
2019-04-03T12:04:36.003Z,21376.00
2019-04-03T12:05:36.085Z,14644.00
2019-04-03T12:06:36.385Z,52320.00
2019-04-03T12:07:36.249Z,62752.00
2019-04-03T12:08:35.971Z,64608.00
2019-04-03T12:09:35.969Z,52384.00
2019-04-03T12:10:35.937Z,45952.00
2019-04-03T12:11:38.400Z,59296.00
2019-04-03T12:12:36.034Z,43296.00
2019-04-03T12:13:36.110Z,17472.00
2019-04-03T12:14:35.903Z,20736.00
2019-04-03T12:15:35.892Z,24608.00
2019-04-03T12:16:35.913Z,17888.00
2019-04-03T12:17:35.872Z,35328.00
2019-04-03T12:18:36.198Z,20192.00
2019-04-03T12:19:37.070Z,12344.00
2019-04-03T12:20:35.832Z,8860.00
2019-04-03T12:21:35.829Z,11568.00
2019-04-03T12:22:35.808Z,10796.00
2019-04-03T12:23:38.763Z,10548.00
2019-04-03T12:24:36.227Z,16032.00